createdAt,value
2019-02-08T00:04:18.803Z,37.47
2019-02-08T00:09:24.973Z,36.60
2019-02-08T00:14:31.155Z,42.10
2019-02-08T00:19:37.140Z,31.17
2019-02-08T00:24:43.133Z,33.83
2019-02-08T00:29:50.182Z,34.33
2019-02-08T00:34:56.186Z,35.20
2019-02-08T00:40:02.166Z,37.30
2019-02-08T00:45:08.746Z,27.57
2019-02-08T00:50:17.684Z,31.93
2019-02-08T00:55:23.833Z,30.40
2019-02-08T01:00:30.253Z,33.57
2019-02-08T01:05:36.521Z,28.63
2019-02-08T01:10:42.610Z,27.30
2019-02-08T01:15:48.640Z,31.10
2019-02-08T01:20:54.766Z,26.23
2019-02-08T01:26:01.023Z,28.77
2019-02-08T01:31:07.089Z,27.43
2019-02-08T01:36:13.156Z,32.20
2019-02-08T01:41:19.330Z,26.77
2019-02-08T01:46:25.329Z,32.10
2019-02-08T01:51:31.391Z,30.70
2019-02-08T01:56:37.668Z,23.30
2019-02-08T02:01:43.720Z,32.47
2019-02-08T02:06:51.173Z,28.37
2019-02-08T02:11:57.138Z,31.00
2019-02-08T02:17:03.117Z,33.20
2019-02-08T02:22:09.260Z,28.93
2019-02-08T02:27:15.437Z,32.43
2019-02-08T02:32:21.306Z,29.23
2019-02-08T02:37:27.451Z,28.63
2019-02-08T02:42:33.550Z,29.30
2019-02-08T02:47:39.759Z,24.90
2019-02-08T02:52:45.711Z,28.33
2019-02-08T02:57:51.904Z,28.20
2019-02-08T03:02:59.167Z,34.33
2019-02-08T03:08:07.355Z,22.33
2019-02-08T03:13:13.502Z,22.87
2019-02-08T03:18:19.535Z,22.20
2019-02-08T03:23:25.593Z,26.97
2019-02-08T03:28:31.718Z,21.37
2019-02-08T03:33:37.840Z,27.37
2019-02-08T03:38:43.853Z,26.60
2019-02-08T03:43:49.876Z,35.20
2019-02-08T03:48:55.821Z,22.20
2019-02-08T03:54:01.993Z,24.60
2019-02-08T03:59:08.170Z,24.20
2019-02-08T04:04:16.407Z,29.23
2019-02-08T04:09:22.450Z,29.30
2019-02-08T04:14:28.442Z,33.13
2019-02-08T04:19:34.497Z,26.53
2019-02-08T04:24:40.493Z,26.47
2019-02-08T04:29:46.662Z,26.40
2019-02-08T04:34:52.731Z,26.80
2019-02-08T04:39:58.823Z,29.07
2019-02-08T04:45:04.977Z,19.77
2019-02-08T04:50:13.358Z,22.80
2019-02-08T04:55:20.719Z,21.93
2019-02-08T05:00:31.940Z,20.60
2019-02-08T05:05:38.004Z,16.73
2019-02-08T05:10:44.042Z,20.53
2019-02-08T05:15:50.510Z,19.43
2019-02-08T05:20:56.531Z,19.70
2019-02-08T05:26:02.671Z,18.63
2019-02-08T05:31:08.775Z,19.43
2019-02-08T05:36:14.836Z,17.43
2019-02-08T05:41:21.952Z,20.93
2019-02-08T05:46:28.136Z,19.47
2019-02-08T05:51:34.225Z,17.97
2019-02-08T05:56:40.269Z,18.83
2019-02-08T06:01:46.371Z,16.67
2019-02-08T06:06:52.427Z,18.37
2019-02-08T06:11:58.598Z,19.83
2019-02-08T06:17:04.878Z,23.43
2019-02-08T06:22:11.035Z,20.50
2019-02-08T06:27:17.154Z,26.37
2019-02-08T06:32:23.299Z,17.53
2019-02-08T06:37:29.386Z,19.13
2019-02-08T06:42:35.457Z,16.93
2019-02-08T06:47:41.640Z,22.33
2019-02-08T06:52:47.800Z,20.50
2019-02-08T06:58:06.223Z,21.53
2019-02-08T07:03:37.277Z,13.90
2019-02-08T07:09:05.280Z,18.30
2019-02-08T07:14:36.505Z,14.83
2019-02-08T07:20:00.530Z,14.27
2019-02-08T07:25:26.984Z,13.63
2019-02-08T07:31:03.948Z,20.57
2019-02-08T07:36:29.377Z,17.10
2019-02-08T07:41:47.057Z,17.73
2019-02-08T07:47:25.488Z,17.17
2019-02-08T07:52:49.581Z,13.80
2019-02-08T07:58:14.193Z,16.23
2019-02-08T08:03:39.108Z,16.00
2019-02-08T08:09:10.273Z,12.87
2019-02-08T08:14:41.433Z,17.30
2019-02-08T08:20:19.360Z,14.73
2019-02-08T08:25:50.107Z,14.83
2019-02-08T08:31:10.521Z,23.63
2019-02-08T08:36:48.034Z,19.80
2019-02-08T08:42:07.685Z,53.90
2019-02-08T08:48:15.547Z,13.27
2019-02-08T08:53:55.573Z,9.37
2019-02-08T08:59:44.762Z,12.90
2019-02-08T09:05:30.306Z,9.27
2019-02-08T09:11:17.206Z,9.47
2019-02-08T09:17:00.634Z,11.60
2019-02-08T09:22:30.159Z,6.73
2019-02-08T09:28:04.547Z,7.63
2019-02-08T09:33:56.499Z,8.30
2019-02-08T09:39:52.045Z,5.00
2019-02-08T09:45:57.396Z,9.47
2019-02-08T09:51:47.384Z,8.93
2019-02-08T09:57:24.932Z,30.10
2019-02-08T10:03:13.389Z,22.80
2019-02-08T10:09:30.313Z,27.77
2019-02-08T10:15:11.716Z,7.87
2019-02-08T10:21:00.700Z,10.33
2019-02-08T10:26:42.921Z,7.57
2019-02-08T10:32:28.389Z,33.60
2019-02-08T10:38:08.797Z,9.47
2019-02-08T10:44:17.036Z,8.90
2019-02-08T10:50:05.294Z,27.53
2019-02-08T10:55:49.535Z,10.67
2019-02-08T11:01:41.997Z,14.40
2019-02-08T11:07:31.801Z,7.70
2019-02-08T11:13:13.141Z,6.17
2019-02-08T11:19:13.648Z,9.93
2019-02-08T11:24:27.071Z,6.43
2019-02-08T11:29:33.132Z,10.93
2019-02-08T11:34:39.259Z,18.87
2019-02-08T11:39:45.349Z,6.93
2019-02-08T11:44:51.267Z,7.73
2019-02-08T11:49:57.465Z,10.87
2019-02-08T11:55:03.521Z,8.73
2019-02-08T12:00:14.733Z,9.80
2019-02-08T12:05:20.806Z,8.77
2019-02-08T12:10:26.961Z,6.53
2019-02-08T12:15:33.230Z,7.00
2019-02-08T12:20:39.346Z,8.30
2019-02-08T12:25:45.507Z,5.23
2019-02-08T12:30:51.680Z,6.80
2019-02-08T12:35:58.768Z,8.63
2019-02-08T12:41:09.700Z,6.43
2019-02-08T12:46:12.352Z,6.97
2019-02-08T12:51:18.484Z,7.80
2019-02-08T12:56:24.594Z,6.10
2019-02-08T13:01:37.426Z,11.57
2019-02-08T13:06:38.428Z,6.63
2019-02-08T13:11:44.521Z,3.13
2019-02-08T13:16:50.541Z,4.77
2019-02-08T13:21:56.509Z,6.10
2019-02-08T13:27:02.681Z,5.87
2019-02-08T13:32:08.818Z,5.03
2019-02-08T13:37:14.858Z,5.03
2019-02-08T13:42:20.897Z,8.10
2019-02-08T13:47:26.985Z,6.27
2019-02-08T13:52:33.088Z,5.17
2019-02-08T13:57:39.142Z,7.07
2019-02-08T14:02:45.099Z,7.80
2019-02-08T14:07:51.084Z,5.93
2019-02-08T14:12:57.145Z,10.07
2019-02-08T14:18:03.143Z,5.40
2019-02-08T14:23:09.136Z,7.20
2019-02-08T14:28:15.264Z,7.63
2019-02-08T14:33:21.434Z,4.77
2019-02-08T14:38:27.546Z,3.93
2019-02-08T14:43:33.630Z,4.33
2019-02-08T14:48:39.712Z,4.33
2019-02-08T14:53:45.633Z,5.50
2019-02-08T14:58:51.709Z,6.43
2019-02-08T15:03:57.612Z,3.83
2019-02-08T15:09:04.989Z,3.60
2019-02-08T15:14:12.308Z,4.30
2019-02-08T15:19:18.264Z,2.77
2019-02-08T15:24:24.366Z,4.40
2019-02-08T15:29:30.319Z,5.40
2019-02-08T15:34:36.289Z,6.10
2019-02-08T15:39:42.393Z,7.73
2019-02-08T15:44:48.500Z,9.93
2019-02-08T15:49:54.731Z,18.17
2019-02-08T15:55:00.795Z,19.00
2019-02-08T16:00:07.696Z,16.57
2019-02-08T16:05:14.777Z,27.27
2019-02-08T16:10:20.963Z,32.90
2019-02-08T16:15:28.311Z,32.03
2019-02-08T16:20:34.660Z,30.67
2019-02-08T16:25:40.831Z,19.80
2019-02-08T16:30:46.931Z,18.93
2019-02-08T16:35:53.045Z,18.30
2019-02-08T16:40:59.640Z,16.77
2019-02-08T16:46:06.157Z,18.33
2019-02-08T16:51:12.376Z,22.03
2019-02-08T16:56:18.459Z,20.97
2019-02-08T17:01:24.708Z,20.63
2019-02-08T17:06:30.963Z,21.47
2019-02-08T17:11:36.975Z,14.97
2019-02-08T17:16:43.137Z,17.20
2019-02-08T17:21:49.437Z,17.03
2019-02-08T17:26:55.736Z,15.43
2019-02-08T17:32:01.804Z,12.37
2019-02-08T17:37:07.910Z,16.80
2019-02-08T17:42:14.092Z,18.53
2019-02-08T17:47:20.053Z,21.77
2019-02-08T17:52:26.141Z,16.70
2019-02-08T17:57:32.170Z,27.93
2019-02-08T18:02:38.208Z,30.30
2019-02-08T18:07:44.282Z,27.10
2019-02-08T18:12:50.364Z,50.10
2019-02-08T18:17:56.422Z,53.97
2019-02-08T18:23:02.405Z,44.83
2019-02-08T18:28:11.035Z,40.40
2019-02-08T18:33:16.188Z,43.73
2019-02-08T18:38:22.134Z,47.60
2019-02-08T18:43:28.204Z,36.87
2019-02-08T18:48:34.257Z,44.83
2019-02-08T18:53:40.439Z,40.13
2019-02-08T18:58:46.545Z,46.10
2019-02-08T19:03:52.722Z,41.93
2019-02-08T19:08:58.723Z,51.10
2019-02-08T19:14:04.983Z,52.33
2019-02-08T19:19:10.959Z,45.10
2019-02-08T19:24:16.917Z,45.47
2019-02-08T19:29:22.959Z,48.80
2019-02-08T19:34:29.062Z,48.77
2019-02-08T19:39:35.156Z,50.57
2019-02-08T19:44:41.213Z,48.97
2019-02-08T19:49:47.416Z,56.17
2019-02-08T19:54:53.482Z,49.60
2019-02-08T19:59:59.657Z,49.23
2019-02-08T20:05:09.336Z,55.37
2019-02-08T20:10:23.908Z,45.43
2019-02-08T20:15:30.264Z,50.30
2019-02-08T20:20:36.341Z,49.13
2019-02-08T20:25:42.410Z,48.87
2019-02-08T20:30:48.369Z,54.63
2019-02-08T20:35:54.960Z,47.23
2019-02-08T20:41:00.940Z,45.20
2019-02-08T20:46:07.024Z,49.57
2019-02-08T20:51:13.176Z,41.37
2019-02-08T20:56:19.381Z,46.97
2019-02-08T21:01:25.565Z,35.17
2019-02-08T21:06:31.543Z,32.80
2019-02-08T21:11:37.510Z,29.33
2019-02-08T21:16:43.478Z,24.17
2019-02-08T21:21:49.628Z,17.10
2019-02-08T21:26:55.702Z,13.70
2019-02-08T21:32:01.742Z,15.90
2019-02-08T21:37:09.101Z,10.23
2019-02-08T21:42:15.058Z,11.23
2019-02-08T21:47:21.228Z,9.13
2019-02-08T21:52:27.419Z,15.60
2019-02-08T21:57:33.521Z,17.97
2019-02-08T22:02:39.606Z,21.60
2019-02-08T22:07:45.845Z,25.10
2019-02-08T22:12:52.151Z,15.70
2019-02-08T22:17:58.389Z,15.03
2019-02-08T22:23:05.069Z,12.27
2019-02-08T22:28:11.179Z,12.80
2019-02-08T22:33:17.422Z,12.97
2019-02-08T22:38:23.301Z,11.10
2019-02-08T22:43:30.412Z,12.53
2019-02-08T22:48:36.503Z,14.13
2019-02-08T22:53:43.590Z,10.17
2019-02-08T22:58:50.040Z,10.00
2019-02-08T23:03:57.430Z,10.47
2019-02-08T23:09:04.662Z,8.80
2019-02-08T23:14:12.403Z,10.93
2019-02-08T23:19:18.457Z,12.27
2019-02-08T23:24:24.544Z,15.27
2019-02-08T23:29:30.661Z,10.20
2019-02-08T23:34:36.692Z,10.40
2019-02-08T23:39:42.778Z,15.60
2019-02-08T23:44:48.826Z,26.53
2019-02-08T23:49:54.836Z,9.20
2019-02-08T23:55:00.686Z,8.27
